sensor_id;sensor_type;location;lat;lon;timestamp;P1;durP1;ratioP1;P2;durP2;ratioP2
50363;SDS011;36272;59.400;17.982;2023-02-11T00:02:16;8.68;;;2.60;;
50363;SDS011;36272;59.400;17.982;2023-02-11T00:07:17;14.50;;;3.30;;
50363;SDS011;36272;59.400;17.982;2023-02-11T00:12:21;9.25;;;3.35;;
50363;SDS011;36272;59.400;17.982;2023-02-11T00:17:23;10.07;;;3.78;;
50363;SDS011;36272;59.400;17.982;2023-02-11T00:22:24;7.68;;;4.07;;
50363;SDS011;36272;59.400;17.982;2023-02-11T00:27:29;9.35;;;4.68;;
50363;SDS011;36272;59.400;17.982;2023-02-11T00:32:30;8.95;;;4.50;;
50363;SDS011;36272;59.400;17.982;2023-02-11T00:37:32;10.07;;;4.70;;
50363;SDS011;36272;59.400;17.982;2023-02-11T00:42:36;16.40;;;5.82;;
50363;SDS011;36272;59.400;17.982;2023-02-11T00:47:38;11.20;;;6.35;;
50363;SDS011;36272;59.400;17.982;2023-02-11T00:52:39;18.35;;;5.90;;
50363;SDS011;36272;59.400;17.982;2023-02-11T00:57:41;14.60;;;6.20;;
50363;SDS011;36272;59.400;17.982;2023-02-11T01:02:43;15.02;;;6.60;;
50363;SDS011;36272;59.400;17.982;2023-02-11T01:07:45;17.60;;;6.40;;
50363;SDS011;36272;59.400;17.982;2023-02-11T01:12:46;24.10;;;7.35;;
50363;SDS011;36272;59.400;17.982;2023-02-11T01:17:48;29.70;;;12.43;;
50363;SDS011;36272;59.400;17.982;2023-02-11T01:22:50;29.38;;;9.73;;
50363;SDS011;36272;59.400;17.982;2023-02-11T01:27:52;28.15;;;10.02;;
50363;SDS011;36272;59.400;17.982;2023-02-11T01:32:53;38.72;;;12.18;;
50363;SDS011;36272;59.400;17.982;2023-02-11T01:37:55;42.15;;;11.45;;
50363;SDS011;36272;59.400;17.982;2023-02-11T01:42:57;33.85;;;10.13;;
50363;SDS011;36272;59.400;17.982;2023-02-11T01:47:58;46.53;;;19.33;;
50363;SDS011;36272;59.400;17.982;2023-02-11T01:53:02;27.45;;;10.00;;
50363;SDS011;36272;59.400;17.982;2023-02-11T01:58:24;19.58;;;8.10;;
50363;SDS011;36272;59.400;17.982;2023-02-11T02:03:27;19.17;;;6.93;;
50363;SDS011;36272;59.400;17.982;2023-02-11T02:08:35;19.25;;;7.03;;
50363;SDS011;36272;59.400;17.982;2023-02-11T02:13:42;16.15;;;6.70;;
50363;SDS011;36272;59.400;17.982;2023-02-11T02:34:49;20.02;;;7.85;;
50363;SDS011;36272;59.400;17.982;2023-02-11T02:39:58;20.83;;;6.75;;
50363;SDS011;36272;59.400;17.982;2023-02-11T02:45:05;19.13;;;7.38;;
50363;SDS011;36272;59.400;17.982;2023-02-11T02:50:09;20.70;;;7.13;;
50363;SDS011;36272;59.400;17.982;2023-02-11T02:55:19;18.97;;;7.57;;
50363;SDS011;36272;59.400;17.982;2023-02-11T03:11:42;18.23;;;5.88;;
50363;SDS011;36272;59.400;17.982;2023-02-11T03:16:45;21.02;;;5.35;;
50363;SDS011;36272;59.400;17.982;2023-02-11T03:21:50;20.50;;;6.25;;
50363;SDS011;36272;59.400;17.982;2023-02-11T03:26:54;14.80;;;5.90;;
50363;SDS011;36272;59.400;17.982;2023-02-11T03:32:00;15.65;;;5.25;;
50363;SDS011;36272;59.400;17.982;2023-02-11T03:37:23;10.95;;;3.92;;
50363;SDS011;36272;59.400;17.982;2023-02-11T03:42:47;6.88;;;3.10;;
50363;SDS011;36272;59.400;17.982;2023-02-11T03:47:56;6.88;;;2.85;;
50363;SDS011;36272;59.400;17.982;2023-02-11T03:53:02;7.55;;;2.33;;
50363;SDS011;36272;59.400;17.982;2023-02-11T03:58:04;7.45;;;1.90;;
50363;SDS011;36272;59.400;17.982;2023-02-11T04:03:07;5.90;;;1.98;;
50363;SDS011;36272;59.400;17.982;2023-02-11T04:08:09;6.28;;;1.92;;
50363;SDS011;36272;59.400;17.982;2023-02-11T04:13:11;4.75;;;1.65;;
50363;SDS011;36272;59.400;17.982;2023-02-11T04:18:13;7.95;;;1.90;;
50363;SDS011;36272;59.400;17.982;2023-02-11T04:23:14;7.28;;;1.75;;
50363;SDS011;36272;59.400;17.982;2023-02-11T04:28:16;3.13;;;1.52;;
50363;SDS011;36272;59.400;17.982;2023-02-11T04:33:17;6.10;;;1.75;;
50363;SDS011;36272;59.400;17.982;2023-02-11T04:38:19;7.32;;;1.55;;
50363;SDS011;36272;59.400;17.982;2023-02-11T04:43:24;7.63;;;1.92;;
50363;SDS011;36272;59.400;17.982;2023-02-11T04:48:25;4.25;;;1.35;;
50363;SDS011;36272;59.400;17.982;2023-02-11T04:53:27;6.32;;;1.52;;
50363;SDS011;36272;59.400;17.982;2023-02-11T04:58:34;4.72;;;1.50;;
50363;SDS011;36272;59.400;17.982;2023-02-11T05:03:36;3.95;;;1.60;;
50363;SDS011;36272;59.400;17.982;2023-02-11T05:08:38;6.05;;;1.20;;
50363;SDS011;36272;59.400;17.982;2023-02-11T05:13:40;3.70;;;1.50;;
50363;SDS011;36272;59.400;17.982;2023-02-11T05:18:42;3.88;;;1.13;;
50363;SDS011;36272;59.400;17.982;2023-02-11T05:23:44;4.53;;;1.25;;
50363;SDS011;36272;59.400;17.982;2023-02-11T05:28:46;6.38;;;2.15;;
50363;SDS011;36272;59.400;17.982;2023-02-11T05:33:48;6.53;;;1.35;;
50363;SDS011;36272;59.400;17.982;2023-02-11T05:38:50;3.88;;;1.20;;
50363;SDS011;36272;59.400;17.982;2023-02-11T05:43:51;7.47;;;1.65;;
50363;SDS011;36272;59.400;17.982;2023-02-11T05:48:53;4.15;;;1.50;;
50363;SDS011;36272;59.400;17.982;2023-02-11T05:53:56;3.65;;;1.55;;
50363;SDS011;36272;59.400;17.982;2023-02-11T05:58:58;6.47;;;1.52;;
50363;SDS011;36272;59.400;17.982;2023-02-11T06:04:00;5.70;;;1.42;;
50363;SDS011;36272;59.400;17.982;2023-02-11T06:09:02;5.35;;;1.13;;
50363;SDS011;36272;59.400;17.982;2023-02-11T06:14:05;5.25;;;1.70;;
50363;SDS011;36272;59.400;17.982;2023-02-11T06:19:07;5.88;;;2.03;;
50363;SDS011;36272;59.400;17.982;2023-02-11T06:24:08;7.18;;;1.83;;
50363;SDS011;36272;59.400;17.982;2023-02-11T06:29:10;4.47;;;1.55;;
50363;SDS011;36272;59.400;17.982;2023-02-11T06:34:13;7.45;;;1.80;;
50363;SDS011;36272;59.400;17.982;2023-02-11T06:39:14;10.32;;;1.63;;
50363;SDS011;36272;59.400;17.982;2023-02-11T06:44:16;5.93;;;2.22;;
50363;SDS011;36272;59.400;17.982;2023-02-11T06:49:18;10.70;;;2.00;;
50363;SDS011;36272;59.400;17.982;2023-02-11T06:54:22;8.60;;;2.17;;
50363;SDS011;36272;59.400;17.982;2023-02-11T06:59:24;7.28;;;2.10;;
50363;SDS011;36272;59.400;17.982;2023-02-11T07:04:28;7.97;;;2.08;;
50363;SDS011;36272;59.400;17.982;2023-02-11T07:09:30;5.57;;;1.92;;
50363;SDS011;36272;59.400;17.982;2023-02-11T07:14:31;7.90;;;2.40;;
50363;SDS011;36272;59.400;17.982;2023-02-11T07:19:33;10.55;;;2.42;;
50363;SDS011;36272;59.400;17.982;2023-02-11T07:24:35;6.95;;;2.22;;
50363;SDS011;36272;59.400;17.982;2023-02-11T07:29:36;9.27;;;2.50;;
50363;SDS011;36272;59.400;17.982;2023-02-11T07:34:38;11.63;;;2.50;;
50363;SDS011;36272;59.400;17.982;2023-02-11T07:39:40;11.10;;;3.22;;
50363;SDS011;36272;59.400;17.982;2023-02-11T07:44:41;8.32;;;2.38;;
50363;SDS011;36272;59.400;17.982;2023-02-11T07:49:44;12.07;;;2.78;;
50363;SDS011;36272;59.400;17.982;2023-02-11T07:54:47;8.32;;;2.30;;
50363;SDS011;36272;59.400;17.982;2023-02-11T07:59:48;14.90;;;3.28;;
50363;SDS011;36272;59.400;17.982;2023-02-11T08:04:50;12.02;;;2.60;;
50363;SDS011;36272;59.400;17.982;2023-02-11T08:09:52;10.55;;;2.53;;
50363;SDS011;36272;59.400;17.982;2023-02-11T08:14:54;6.07;;;2.33;;
50363;SDS011;36272;59.400;17.982;2023-02-11T08:19:56;6.45;;;2.25;;
50363;SDS011;36272;59.400;17.982;2023-02-11T08:24:58;9.30;;;2.88;;
50363;SDS011;36272;59.400;17.982;2023-02-11T08:29:59;9.18;;;2.33;;
50363;SDS011;36272;59.400;17.982;2023-02-11T08:35:02;7.15;;;2.70;;
50363;SDS011;36272;59.400;17.982;2023-02-11T08:40:03;13.18;;;2.70;;
50363;SDS011;36272;59.400;17.982;2023-02-11T08:45:06;8.55;;;2.65;;
50363;SDS011;36272;59.400;17.982;2023-02-11T08:50:08;8.85;;;2.42;;
50363;SDS011;36272;59.400;17.982;2023-02-11T08:55:10;13.50;;;2.88;;
50363;SDS011;36272;59.400;17.982;2023-02-11T09:00:12;11.80;;;2.70;;
50363;SDS011;36272;59.400;17.982;2023-02-11T09:05:14;9.50;;;2.78;;
50363;SDS011;36272;59.400;17.982;2023-02-11T09:10:15;8.52;;;2.83;;
50363;SDS011;36272;59.400;17.982;2023-02-11T09:15:17;12.48;;;2.70;;
50363;SDS011;36272;59.400;17.982;2023-02-11T09:20:19;10.95;;;2.67;;
50363;SDS011;36272;59.400;17.982;2023-02-11T09:25:21;11.25;;;3.13;;
50363;SDS011;36272;59.400;17.982;2023-02-11T09:30:23;11.85;;;2.63;;
50363;SDS011;36272;59.400;17.982;2023-02-11T09:35:25;11.50;;;3.03;;
50363;SDS011;36272;59.400;17.982;2023-02-11T09:40:32;10.82;;;2.70;;
50363;SDS011;36272;59.400;17.982;2023-02-11T09:45:34;11.32;;;2.17;;
50363;SDS011;36272;59.400;17.982;2023-02-11T09:50:38;9.45;;;2.40;;
50363;SDS011;36272;59.400;17.982;2023-02-11T09:55:44;11.27;;;2.55;;
50363;SDS011;36272;59.400;17.982;2023-02-11T10:06:09;8.75;;;2.30;;
50363;SDS011;36272;59.400;17.982;2023-02-11T10:22:05;7.80;;;2.25;;
50363;SDS011;36272;59.400;17.982;2023-02-11T10:27:25;7.28;;;2.20;;
50363;SDS011;36272;59.400;17.982;2023-02-11T10:32:34;6.97;;;2.35;;
50363;SDS011;36272;59.400;17.982;2023-02-11T10:37:44;17.95;;;3.13;;
50363;SDS011;36272;59.400;17.982;2023-02-11T10:42:52;12.65;;;2.40;;
50363;SDS011;36272;59.400;17.982;2023-02-11T10:47:56;5.77;;;2.03;;
50363;SDS011;36272;59.400;17.982;2023-02-11T10:53:15;10.82;;;2.40;;
50363;SDS011;36272;59.400;17.982;2023-02-11T10:58:27;8.95;;;2.25;;
50363;SDS011;36272;59.400;17.982;2023-02-11T11:03:36;18.48;;;2.47;;
50363;SDS011;36272;59.400;17.982;2023-02-11T11:14:07;6.45;;;1.92;;
50363;SDS011;36272;59.400;17.982;2023-02-11T11:24:26;8.52;;;2.75;;
50363;SDS011;36272;59.400;17.982;2023-02-11T11:29:38;9.70;;;2.40;;
50363;SDS011;36272;59.400;17.982;2023-02-11T11:34:54;9.48;;;2.50;;
50363;SDS011;36272;59.400;17.982;2023-02-11T11:45:25;9.52;;;1.95;;
50363;SDS011;36272;59.400;17.982;2023-02-11T11:50:46;9.05;;;2.15;;
50363;SDS011;36272;59.400;17.982;2023-02-11T12:01:29;10.20;;;2.22;;
50363;SDS011;36272;59.400;17.982;2023-02-11T12:28:35;8.02;;;2.30;;
50363;SDS011;36272;59.400;17.982;2023-02-11T12:33:59;10.70;;;2.72;;
50363;SDS011;36272;59.400;17.982;2023-02-11T12:50:35;12.68;;;2.45;;
50363;SDS011;36272;59.400;17.982;2023-02-11T12:55:50;8.43;;;1.90;;
50363;SDS011;36272;59.400;17.982;2023-02-11T13:01:02;9.32;;;2.42;;
50363;SDS011;36272;59.400;17.982;2023-02-11T13:06:11;10.65;;;2.10;;
50363;SDS011;36272;59.400;17.982;2023-02-11T13:11:29;5.68;;;2.63;;
50363;SDS011;36272;59.400;17.982;2023-02-11T13:16:40;8.98;;;2.10;;
50363;SDS011;36272;59.400;17.982;2023-02-11T13:43:34;6.75;;;2.08;;
50363;SDS011;36272;59.400;17.982;2023-02-11T13:48:49;6.32;;;1.88;;
50363;SDS011;36272;59.400;17.982;2023-02-11T13:53:53;10.77;;;2.50;;
50363;SDS011;36272;59.400;17.982;2023-02-11T13:58:59;12.47;;;2.50;;
50363;SDS011;36272;59.400;17.982;2023-02-11T14:04:22;6.73;;;2.00;;
50363;SDS011;36272;59.400;17.982;2023-02-11T14:09:43;10.40;;;2.33;;
50363;SDS011;36272;59.400;17.982;2023-02-11T14:20:40;9.15;;;1.65;;
50363;SDS011;36272;59.400;17.982;2023-02-11T14:25:44;5.97;;;2.03;;
50363;SDS011;36272;59.400;17.982;2023-02-11T14:31:11;7.82;;;1.98;;
50363;SDS011;36272;59.400;17.982;2023-02-11T14:42:03;11.30;;;2.60;;
50363;SDS011;36272;59.400;17.982;2023-02-11T14:47:05;11.48;;;2.40;;
50363;SDS011;36272;59.400;17.982;2023-02-11T14:52:26;9.75;;;2.25;;
50363;SDS011;36272;59.400;17.982;2023-02-11T14:57:29;7.35;;;2.15;;
50363;SDS011;36272;59.400;17.982;2023-02-11T15:02:32;10.27;;;2.50;;
50363;SDS011;36272;59.400;17.982;2023-02-11T15:07:44;7.57;;;1.92;;
50363;SDS011;36272;59.400;17.982;2023-02-11T15:12:56;7.68;;;2.33;;
50363;SDS011;36272;59.400;17.982;2023-02-11T15:18:00;7.68;;;2.20;;
50363;SDS011;36272;59.400;17.982;2023-02-11T15:23:07;17.25;;;2.35;;
50363;SDS011;36272;59.400;17.982;2023-02-11T15:28:25;12.65;;;2.45;;
50363;SDS011;36272;59.400;17.982;2023-02-11T15:33:30;10.63;;;2.15;;
50363;SDS011;36272;59.400;17.982;2023-02-11T15:38:32;11.55;;;3.05;;
50363;SDS011;36272;59.400;17.982;2023-02-11T15:48:51;6.72;;;2.25;;
50363;SDS011;36272;59.400;17.982;2023-02-11T15:53:55;8.30;;;1.90;;
50363;SDS011;36272;59.400;17.982;2023-02-11T15:59:15;9.63;;;2.00;;
50363;SDS011;36272;59.400;17.982;2023-02-11T16:04:30;10.27;;;2.75;;
50363;SDS011;36272;59.400;17.982;2023-02-11T16:09:33;7.60;;;2.50;;
50363;SDS011;36272;59.400;17.982;2023-02-11T16:14:39;7.82;;;2.60;;
50363;SDS011;36272;59.400;17.982;2023-02-11T16:24:58;10.82;;;2.85;;
50363;SDS011;36272;59.400;17.982;2023-02-11T16:30:33;8.05;;;2.38;;
50363;SDS011;36272;59.400;17.982;2023-02-11T16:35:40;8.55;;;2.22;;
50363;SDS011;36272;59.400;17.982;2023-02-11T16:40:45;9.20;;;2.15;;
50363;SDS011;36272;59.400;17.982;2023-02-11T16:45:52;11.73;;;2.20;;
50363;SDS011;36272;59.400;17.982;2023-02-11T16:50:53;12.02;;;2.92;;
50363;SDS011;36272;59.400;17.982;2023-02-11T16:56:01;10.48;;;3.10;;
50363;SDS011;36272;59.400;17.982;2023-02-11T17:01:10;10.85;;;2.33;;
50363;SDS011;36272;59.400;17.982;2023-02-11T17:06:20;12.88;;;2.40;;
50363;SDS011;36272;59.400;17.982;2023-02-11T17:11:29;9.30;;;2.20;;
50363;SDS011;36272;59.400;17.982;2023-02-11T17:16:38;11.13;;;2.20;;
50363;SDS011;36272;59.400;17.982;2023-02-11T17:21:51;7.43;;;1.73;;
50363;SDS011;36272;59.400;17.982;2023-02-11T17:26:53;7.97;;;2.08;;
50363;SDS011;36272;59.400;17.982;2023-02-11T17:31:55;9.60;;;2.28;;
50363;SDS011;36272;59.400;17.982;2023-02-11T17:36:57;6.75;;;1.80;;
50363;SDS011;36272;59.400;17.982;2023-02-11T17:42:00;9.23;;;1.88;;
50363;SDS011;36272;59.400;17.982;2023-02-11T17:47:02;4.32;;;1.65;;
50363;SDS011;36272;59.400;17.982;2023-02-11T17:52:04;11.80;;;2.83;;
50363;SDS011;36272;59.400;17.982;2023-02-11T17:57:06;9.45;;;2.85;;
50363;SDS011;36272;59.400;17.982;2023-02-11T18:02:09;9.60;;;2.50;;
50363;SDS011;36272;59.400;17.982;2023-02-11T18:07:12;8.87;;;2.60;;
50363;SDS011;36272;59.400;17.982;2023-02-11T18:12:14;6.60;;;2.40;;
50363;SDS011;36272;59.400;17.982;2023-02-11T18:17:19;16.15;;;2.70;;
50363;SDS011;36272;59.400;17.982;2023-02-11T18:22:21;13.90;;;2.65;;
50363;SDS011;36272;59.400;17.982;2023-02-11T18:27:24;7.63;;;2.60;;
50363;SDS011;36272;59.400;17.982;2023-02-11T18:32:27;9.23;;;3.30;;
50363;SDS011;36272;59.400;17.982;2023-02-11T18:37:29;13.18;;;2.70;;
50363;SDS011;36272;59.400;17.982;2023-02-11T18:42:31;12.05;;;3.20;;
50363;SDS011;36272;59.400;17.982;2023-02-11T18:47:35;10.85;;;2.70;;
50363;SDS011;36272;59.400;17.982;2023-02-11T18:52:40;9.23;;;2.97;;
50363;SDS011;36272;59.400;17.982;2023-02-11T18:57:45;9.40;;;3.00;;
50363;SDS011;36272;59.400;17.982;2023-02-11T19:02:56;14.98;;;3.15;;
50363;SDS011;36272;59.400;17.982;2023-02-11T19:14:21;12.60;;;3.45;;
50363;SDS011;36272;59.400;17.982;2023-02-11T19:19:44;8.45;;;3.53;;
50363;SDS011;36272;59.400;17.982;2023-02-11T19:24:47;10.55;;;2.85;;
50363;SDS011;36272;59.400;17.982;2023-02-11T19:29:49;9.18;;;2.67;;
50363;SDS011;36272;59.400;17.982;2023-02-11T19:34:51;11.57;;;3.17;;
50363;SDS011;36272;59.400;17.982;2023-02-11T19:39:53;9.93;;;3.35;;
50363;SDS011;36272;59.400;17.982;2023-02-11T19:44:55;14.55;;;3.25;;
50363;SDS011;36272;59.400;17.982;2023-02-11T19:49:57;9.02;;;2.72;;
50363;SDS011;36272;59.400;17.982;2023-02-11T19:54:59;8.30;;;2.60;;
50363;SDS011;36272;59.400;17.982;2023-02-11T20:00:01;8.27;;;2.75;;
50363;SDS011;36272;59.400;17.982;2023-02-11T20:05:03;17.13;;;5.55;;
50363;SDS011;36272;59.400;17.982;2023-02-11T20:10:05;13.10;;;3.20;;
50363;SDS011;36272;59.400;17.982;2023-02-11T20:15:08;16.27;;;2.72;;
50363;SDS011;36272;59.400;17.982;2023-02-11T20:20:10;8.75;;;2.63;;
50363;SDS011;36272;59.400;17.982;2023-02-11T20:25:13;9.13;;;2.83;;
50363;SDS011;36272;59.400;17.982;2023-02-11T20:30:15;9.70;;;2.47;;
50363;SDS011;36272;59.400;17.982;2023-02-11T20:35:16;11.55;;;2.72;;
50363;SDS011;36272;59.400;17.982;2023-02-11T20:40:18;10.63;;;3.42;;
50363;SDS011;36272;59.400;17.982;2023-02-11T20:45:29;8.25;;;3.00;;
50363;SDS011;36272;59.400;17.982;2023-02-11T20:50:34;9.20;;;3.40;;
50363;SDS011;36272;59.400;17.982;2023-02-11T20:55:36;11.77;;;4.22;;
50363;SDS011;36272;59.400;17.982;2023-02-11T21:00:42;13.32;;;5.57;;
50363;SDS011;36272;59.400;17.982;2023-02-11T21:05:46;16.48;;;4.72;;
50363;SDS011;36272;59.400;17.982;2023-02-11T21:10:50;18.73;;;5.55;;
50363;SDS011;36272;59.400;17.982;2023-02-11T21:15:55;15.32;;;5.38;;
50363;SDS011;36272;59.400;17.982;2023-02-11T21:20:57;13.20;;;5.28;;
50363;SDS011;36272;59.400;17.982;2023-02-11T21:25:59;13.55;;;4.72;;
50363;SDS011;36272;59.400;17.982;2023-02-11T21:31:01;16.00;;;5.03;;
50363;SDS011;36272;59.400;17.982;2023-02-11T21:36:04;13.32;;;4.82;;
50363;SDS011;36272;59.400;17.982;2023-02-11T21:41:08;18.92;;;7.43;;
50363;SDS011;36272;59.400;17.982;2023-02-11T21:46:11;16.73;;;7.15;;
50363;SDS011;36272;59.400;17.982;2023-02-11T21:51:15;13.98;;;6.63;;
50363;SDS011;36272;59.400;17.982;2023-02-11T21:56:22;17.45;;;6.50;;
50363;SDS011;36272;59.400;17.982;2023-02-11T22:01:29;17.17;;;6.55;;
50363;SDS011;36272;59.400;17.982;2023-02-11T22:06:32;23.20;;;4.85;;
50363;SDS011;36272;59.400;17.982;2023-02-11T22:11:34;12.68;;;5.18;;
50363;SDS011;36272;59.400;17.982;2023-02-11T22:16:36;15.27;;;5.53;;
50363;SDS011;36272;59.400;17.982;2023-02-11T22:21:38;15.27;;;5.20;;
50363;SDS011;36272;59.400;17.982;2023-02-11T22:26:42;13.35;;;5.25;;
50363;SDS011;36272;59.400;17.982;2023-02-11T22:31:47;7.70;;;3.80;;
50363;SDS011;36272;59.400;17.982;2023-02-11T22:36:49;23.77;;;6.40;;
50363;SDS011;36272;59.400;17.982;2023-02-11T22:41:50;21.17;;;6.15;;
50363;SDS011;36272;59.400;17.982;2023-02-11T22:46:54;13.23;;;4.97;;
50363;SDS011;36272;59.400;17.982;2023-02-11T22:51:56;13.30;;;5.35;;
50363;SDS011;36272;59.400;17.982;2023-02-11T22:57:00;18.08;;;5.70;;
50363;SDS011;36272;59.400;17.982;2023-02-11T23:02:05;14.97;;;5.97;;
50363;SDS011;36272;59.400;17.982;2023-02-11T23:07:06;12.23;;;5.20;;
50363;SDS011;36272;59.400;17.982;2023-02-11T23:12:08;16.52;;;5.95;;
50363;SDS011;36272;59.400;17.982;2023-02-11T23:17:10;15.75;;;5.93;;
50363;SDS011;36272;59.400;17.982;2023-02-11T23:22:15;22.02;;;6.97;;
50363;SDS011;36272;59.400;17.982;2023-02-11T23:27:16;19.47;;;6.40;;
50363;SDS011;36272;59.400;17.982;2023-02-11T23:32:18;14.20;;;4.07;;
50363;SDS011;36272;59.400;17.982;2023-02-11T23:37:20;13.10;;;4.20;;
50363;SDS011;36272;59.400;17.982;2023-02-11T23:42:21;15.95;;;4.57;;
50363;SDS011;36272;59.400;17.982;2023-02-11T23:47:23;13.57;;;4.50;;
50363;SDS011;36272;59.400;17.982;2023-02-11T23:52:25;14.82;;;5.60;;
50363;SDS011;36272;59.400;17.982;2023-02-11T23:57:32;13.98;;;5.15;;
